createdAt,value
2022-09-26T00:01:36.727Z,1.17
2022-09-26T00:04:10.199Z,1.63
2022-09-26T00:06:37.148Z,1.35
2022-09-26T00:09:05.573Z,1.15
2022-09-26T00:11:34.071Z,0.85
2022-09-26T00:14:05.292Z,0.85
2022-09-26T00:16:32.737Z,1.30
2022-09-26T00:19:00.099Z,1.13
2022-09-26T00:21:29.765Z,1.15
2022-09-26T00:23:58.214Z,1.45
2022-09-26T00:26:26.975Z,0.95
2022-09-26T00:28:54.146Z,0.88
2022-09-26T00:31:29.621Z,0.93
2022-09-26T00:33:59.335Z,1.00
2022-09-26T00:36:37.557Z,1.20
2022-09-26T00:39:10.875Z,0.90
2022-09-26T00:41:38.619Z,1.40
2022-09-26T00:44:43.280Z,1.20
2022-09-26T00:47:25.201Z,0.80
2022-09-26T00:50:03.641Z,0.75
2022-09-26T00:52:58.643Z,1.25
2022-09-26T00:55:35.041Z,0.88
2022-09-26T00:58:30.929Z,0.85
2022-09-26T01:01:00.740Z,1.27
2022-09-26T01:03:31.283Z,1.10
2022-09-26T01:05:59.783Z,1.88
2022-09-26T01:08:42.667Z,1.13
2022-09-26T01:11:16.156Z,1.05
2022-09-26T01:13:44.901Z,1.05
2022-09-26T01:16:11.887Z,0.80
2022-09-26T01:18:39.166Z,0.85
2022-09-26T01:21:27.496Z,1.15
2022-09-26T01:24:27.853Z,1.02
2022-09-26T01:27:00.707Z,0.73
2022-09-26T01:30:10.225Z,0.82
2022-09-26T01:33:01.516Z,1.20
2022-09-26T01:35:48.562Z,1.30
2022-09-26T01:38:48.378Z,1.20
2022-09-26T01:41:28.195Z,1.20
2022-09-26T01:44:04.846Z,1.20
2022-09-26T01:47:00.478Z,1.05
2022-09-26T01:49:53.465Z,1.05
2022-09-26T01:52:59.481Z,1.20
2022-09-26T01:55:36.609Z,1.20
2022-09-26T01:58:09.244Z,1.42
2022-09-26T02:00:39.769Z,1.42
2022-09-26T02:03:12.362Z,1.77
2022-09-26T02:05:47.532Z,1.10
2022-09-26T02:08:18.784Z,0.98
2022-09-26T02:11:10.786Z,0.77
2022-09-26T02:13:55.532Z,0.93
2022-09-26T02:16:37.297Z,1.27
2022-09-26T02:19:24.063Z,1.00
2022-09-26T02:21:51.614Z,0.70
2022-09-26T02:24:18.932Z,1.20
2022-09-26T02:26:46.533Z,0.80
2022-09-26T02:29:15.676Z,1.10
2022-09-26T02:31:50.943Z,1.02
2022-09-26T02:34:18.581Z,0.60
2022-09-26T02:36:49.276Z,1.00
2022-09-26T02:39:18.235Z,0.60
2022-09-26T02:41:58.481Z,1.10
2022-09-26T02:44:31.015Z,0.60
2022-09-26T02:47:19.859Z,0.60
2022-09-26T02:50:02.414Z,0.80
2022-09-26T02:53:08.061Z,1.00
2022-09-26T02:55:55.347Z,0.90
2022-09-26T02:58:38.829Z,1.40
2022-09-26T03:01:26.002Z,0.98
2022-09-26T03:04:02.684Z,1.33
2022-09-26T03:06:44.419Z,1.13
2022-09-26T03:09:13.065Z,0.95
2022-09-26T03:11:42.978Z,1.08
2022-09-26T03:14:12.228Z,1.20
2022-09-26T03:16:43.550Z,1.00
2022-09-26T03:19:18.475Z,1.50
2022-09-26T03:21:45.973Z,1.52
2022-09-26T03:24:14.780Z,1.30
2022-09-26T03:26:43.829Z,1.10
2022-09-26T03:29:10.707Z,1.00
2022-09-26T03:31:37.631Z,1.27
2022-09-26T03:34:06.521Z,1.23
2022-09-26T03:36:34.738Z,1.08
2022-09-26T03:39:03.621Z,1.25
2022-09-26T03:41:52.326Z,1.52
2022-09-26T03:44:26.458Z,1.33
2022-09-26T03:47:13.674Z,1.27
2022-09-26T03:49:42.757Z,1.10
2022-09-26T03:52:13.442Z,1.00
2022-09-26T03:54:44.542Z,1.20
2022-09-26T03:57:13.039Z,1.40
2022-09-26T03:59:49.764Z,1.05
2022-09-26T04:02:17.860Z,1.10
2022-09-26T04:04:48.757Z,1.00
2022-09-26T04:07:16.362Z,1.30
2022-09-26T04:09:43.102Z,1.38
2022-09-26T04:12:11.296Z,1.10
2022-09-26T04:14:43.434Z,1.55
2022-09-26T04:17:10.862Z,1.48
2022-09-26T04:19:42.316Z,1.02
2022-09-26T04:22:09.891Z,1.17
2022-09-26T04:24:37.834Z,0.98
2022-09-26T04:27:06.484Z,0.82
2022-09-26T04:29:33.838Z,1.30
2022-09-26T04:32:19.497Z,1.10
2022-09-26T04:35:06.690Z,1.02
2022-09-26T04:37:37.009Z,1.00
2022-09-26T04:40:04.637Z,1.15
2022-09-26T04:42:36.798Z,1.10
2022-09-26T04:45:05.349Z,1.02
2022-09-26T04:47:32.742Z,1.30
2022-09-26T04:50:22.607Z,1.73
2022-09-26T04:53:06.347Z,1.00
2022-09-26T04:55:37.362Z,0.85
2022-09-26T04:58:08.697Z,1.73
2022-09-26T05:00:52.171Z,1.30
2022-09-26T05:03:37.990Z,1.10
2022-09-26T05:09:07.004Z,1.00
2022-09-26T05:11:48.719Z,1.10
2022-09-26T05:14:18.359Z,1.40
2022-09-26T05:16:49.943Z,1.20
2022-09-26T05:19:21.685Z,1.58
2022-09-26T05:22:11.334Z,0.80
2022-09-26T05:25:00.284Z,0.80
2022-09-26T05:27:37.961Z,1.38
2022-09-26T05:30:07.908Z,0.82
2022-09-26T05:32:57.882Z,1.23
2022-09-26T05:35:25.824Z,1.25
2022-09-26T05:38:06.193Z,1.35
2022-09-26T05:40:59.627Z,1.13
2022-09-26T05:43:33.290Z,1.10
2022-09-26T05:46:07.764Z,0.82
2022-09-26T05:48:39.801Z,1.17
2022-09-26T05:51:16.883Z,1.48
2022-09-26T05:53:45.957Z,1.00
2022-09-26T05:56:19.029Z,1.35
2022-09-26T05:59:05.355Z,0.63
2022-09-26T06:01:35.468Z,0.82
2022-09-26T06:04:14.873Z,1.02
2022-09-26T06:07:00.129Z,1.45
2022-09-26T06:09:26.922Z,1.08
2022-09-26T06:12:11.644Z,0.60
2022-09-26T06:14:38.771Z,0.77
2022-09-26T06:17:05.540Z,1.17
2022-09-26T06:19:32.526Z,0.90
2022-09-26T06:21:59.328Z,0.90
2022-09-26T06:24:26.197Z,1.00
2022-09-26T06:26:57.717Z,1.40
2022-09-26T06:29:24.586Z,1.13
2022-09-26T06:31:51.484Z,1.30
2022-09-26T06:34:36.997Z,1.38
2022-09-26T06:37:23.291Z,1.10
2022-09-26T06:39:51.538Z,1.30
2022-09-26T06:42:21.043Z,1.10
2022-09-26T06:44:58.107Z,0.82
2022-09-26T06:47:25.183Z,1.05
2022-09-26T06:50:10.553Z,0.70
2022-09-26T06:52:42.296Z,1.13
2022-09-26T06:55:10.071Z,1.30
2022-09-26T06:57:42.661Z,0.93
2022-09-26T07:00:15.768Z,0.90
2022-09-26T07:03:05.679Z,1.02
2022-09-26T07:05:56.342Z,1.65
2022-09-26T07:08:37.738Z,1.08
2022-09-26T07:11:34.751Z,1.10
2022-09-26T07:14:01.823Z,1.15
2022-09-26T07:16:30.394Z,1.60
2022-09-26T07:19:18.554Z,0.90
2022-09-26T07:22:06.646Z,1.02
2022-09-26T07:24:46.226Z,0.82
2022-09-26T07:27:13.138Z,1.10
2022-09-26T07:29:40.605Z,1.92
2022-09-26T07:32:07.632Z,0.93
2022-09-26T07:34:38.731Z,1.00
2022-09-26T07:37:05.745Z,0.80
2022-09-26T07:39:33.942Z,1.13
2022-09-26T07:42:03.647Z,1.00
2022-09-26T07:45:16.992Z,0.80
2022-09-26T07:47:35.880Z,1.20
2022-09-26T07:50:15.640Z,1.00
2022-09-26T07:52:57.390Z,1.20
2022-09-26T07:55:28.070Z,0.55
2022-09-26T07:58:13.558Z,1.10
2022-09-26T08:01:12.142Z,0.85
2022-09-26T08:03:58.406Z,0.80
2022-09-26T08:06:33.215Z,0.57
2022-09-26T08:09:00.500Z,0.90
2022-09-26T08:11:45.903Z,0.95
2022-09-26T08:14:21.333Z,1.48
2022-09-26T08:16:58.258Z,1.35
2022-09-26T08:19:25.943Z,1.20
2022-09-26T08:21:52.690Z,1.00
2022-09-26T08:24:20.210Z,1.10
2022-09-26T08:27:07.712Z,1.50
2022-09-26T08:29:38.390Z,0.60
2022-09-26T08:32:05.187Z,1.30
2022-09-26T08:34:35.004Z,0.73
2022-09-26T08:37:27.748Z,0.63
2022-09-26T08:40:13.616Z,0.65
2022-09-26T08:43:29.970Z,1.00
2022-09-26T08:46:59.570Z,0.98
2022-09-26T08:49:39.261Z,1.42
2022-09-26T08:52:33.208Z,1.10
2022-09-26T08:55:07.625Z,1.40
2022-09-26T08:57:55.140Z,1.55
2022-09-26T09:00:25.716Z,1.15
2022-09-26T09:03:06.635Z,0.80
2022-09-26T09:05:40.999Z,0.88
2022-09-26T09:08:22.088Z,1.55
2022-09-26T09:11:30.854Z,1.33
2022-09-26T09:14:22.493Z,0.88
2022-09-26T09:17:22.401Z,1.38
2022-09-26T09:19:59.971Z,1.13
2022-09-26T09:23:07.620Z,1.23
2022-09-26T09:29:22.042Z,0.75
2022-09-26T09:32:27.935Z,1.40
2022-09-26T09:35:40.076Z,0.70
2022-09-26T09:38:33.247Z,1.48
2022-09-26T09:41:16.403Z,1.20
2022-09-26T09:43:48.558Z,1.58
2022-09-26T09:46:27.603Z,1.65
2022-09-26T09:49:10.202Z,1.60
2022-09-26T09:52:02.391Z,1.30
2022-09-26T09:54:56.651Z,1.27
2022-09-26T09:57:49.326Z,1.20
2022-09-26T10:00:19.168Z,1.10
2022-09-26T10:03:03.894Z,1.13
2022-09-26T10:05:43.009Z,1.60
2022-09-26T10:08:22.502Z,0.80
2022-09-26T10:11:42.035Z,1.02
2022-09-26T10:14:39.447Z,1.08
2022-09-26T10:17:29.473Z,1.13
2022-09-26T10:20:10.101Z,1.20
2022-09-26T10:22:44.990Z,1.10
2022-09-26T10:25:25.805Z,1.05
2022-09-26T10:27:57.661Z,1.05
2022-09-26T10:30:33.271Z,1.00
2022-09-26T10:33:05.222Z,1.55
2022-09-26T10:35:52.661Z,1.42
2022-09-26T10:38:27.353Z,1.10
2022-09-26T10:41:03.531Z,1.15
2022-09-26T10:43:37.836Z,0.85
2022-09-26T10:46:17.814Z,1.20
2022-09-26T10:48:56.834Z,1.05
2022-09-26T10:54:18.700Z,0.93
2022-09-26T10:56:50.764Z,1.25
2022-09-26T10:59:25.424Z,1.15
2022-09-26T11:01:56.461Z,1.08
2022-09-26T11:04:46.354Z,0.73
2022-09-26T11:07:37.678Z,1.02
2022-09-26T11:10:32.238Z,0.88
2022-09-26T11:13:18.628Z,1.43
2022-09-26T11:16:03.392Z,0.88
2022-09-26T11:18:45.243Z,0.82
2022-09-26T11:21:28.646Z,1.08
2022-09-26T11:24:14.722Z,0.98
2022-09-26T11:26:57.469Z,0.82
2022-09-26T11:29:36.546Z,0.70
2022-09-26T11:32:29.270Z,0.80
2022-09-26T11:35:03.602Z,0.70
2022-09-26T11:37:32.577Z,0.80
2022-09-26T11:40:11.557Z,0.90
2022-09-26T11:43:10.954Z,1.02
2022-09-26T11:46:15.280Z,0.70
2022-09-26T11:49:05.774Z,0.90
2022-09-26T11:52:22.443Z,0.80
2022-09-26T11:55:24.470Z,0.90
2022-09-26T11:58:03.995Z,0.80
2022-09-26T12:01:08.052Z,0.98
2022-09-26T12:04:02.485Z,1.10
2022-09-26T12:06:50.865Z,0.88
2022-09-26T12:09:18.530Z,0.80
2022-09-26T12:12:06.882Z,0.90
2022-09-26T12:14:53.871Z,0.50
2022-09-26T12:17:36.101Z,0.80
2022-09-26T12:20:34.357Z,0.70
2022-09-26T12:23:19.196Z,0.57
2022-09-26T12:26:01.174Z,1.08
2022-09-26T12:28:52.484Z,0.80
2022-09-26T12:31:33.466Z,0.95
2022-09-26T12:34:45.186Z,1.00
2022-09-26T12:37:14.225Z,1.13
2022-09-26T12:40:11.789Z,0.80
2022-09-26T12:43:15.846Z,0.82
2022-09-26T12:46:13.167Z,0.57
2022-09-26T12:49:27.661Z,0.80
2022-09-26T12:52:09.093Z,0.73
2022-09-26T12:54:48.300Z,1.10
2022-09-26T12:57:22.806Z,1.02
2022-09-26T13:00:21.547Z,0.60
2022-09-26T13:03:09.664Z,0.60
2022-09-26T13:05:54.620Z,0.70
2022-09-26T13:09:00.774Z,0.70
2022-09-26T13:11:39.560Z,0.60
2022-09-26T13:14:28.446Z,0.50
2022-09-26T13:17:06.789Z,0.60
2022-09-26T13:19:43.343Z,0.50
2022-09-26T13:22:36.951Z,0.60
2022-09-26T13:25:18.849Z,0.73
2022-09-26T13:28:05.019Z,0.35
2022-09-26T13:30:41.796Z,0.50
2022-09-26T13:33:34.283Z,0.55
2022-09-26T13:36:07.522Z,0.70
2022-09-26T13:38:53.335Z,0.60
2022-09-26T13:41:26.754Z,0.40
2022-09-26T13:44:22.968Z,0.50
2022-09-26T13:47:09.975Z,0.60
2022-09-26T13:49:58.141Z,0.52
2022-09-26T13:52:49.766Z,0.63
2022-09-26T13:55:20.300Z,0.47
2022-09-26T13:57:46.980Z,0.43
2022-09-26T14:00:33.764Z,0.50
2022-09-26T14:03:16.502Z,0.28
2022-09-26T14:05:44.011Z,0.70
2022-09-26T14:08:44.825Z,0.38
2022-09-26T14:11:42.837Z,0.38
2022-09-26T14:14:18.978Z,0.40
2022-09-26T14:16:54.434Z,0.20
2022-09-26T14:19:27.833Z,0.40
2022-09-26T14:22:25.057Z,0.50
2022-09-26T14:24:57.088Z,0.50
2022-09-26T14:27:28.346Z,0.35
2022-09-26T14:30:07.203Z,0.60
2022-09-26T14:32:45.913Z,0.75
2022-09-26T14:35:18.923Z,0.50
2022-09-26T14:37:50.797Z,0.60
2022-09-26T14:40:31.135Z,0.80
2022-09-26T14:43:04.784Z,0.60
2022-09-26T14:48:16.745Z,1.00
2022-09-26T14:51:05.886Z,1.05
2022-09-26T14:53:40.689Z,1.05
2022-09-26T14:56:28.510Z,0.88
2022-09-26T14:59:24.290Z,0.70
2022-09-26T15:01:53.623Z,1.10
2022-09-26T15:04:25.533Z,0.90
2022-09-26T15:06:56.271Z,0.73
2022-09-26T15:09:40.647Z,0.85
2022-09-26T15:12:16.977Z,0.70
2022-09-26T15:14:52.741Z,0.80
2022-09-26T15:17:27.794Z,1.30
2022-09-26T15:19:57.546Z,1.02
2022-09-26T15:22:27.254Z,0.82
2022-09-26T15:24:55.537Z,1.38
2022-09-26T15:27:27.204Z,1.00
2022-09-26T15:29:57.791Z,1.65
2022-09-26T15:32:30.080Z,1.23
2022-09-26T15:34:59.698Z,1.40
2022-09-26T15:37:32.854Z,1.40
2022-09-26T15:40:18.498Z,1.48
2022-09-26T15:42:58.230Z,1.45
2022-09-26T15:45:30.516Z,1.25
2022-09-26T15:48:03.804Z,1.77
2022-09-26T15:50:49.012Z,2.00
2022-09-26T15:53:40.474Z,1.73
2022-09-26T15:56:10.052Z,1.73
2022-09-26T15:58:37.370Z,2.33
2022-09-26T16:01:05.864Z,2.80
2022-09-26T16:03:45.719Z,2.78
2022-09-26T16:06:34.192Z,3.10
2022-09-26T16:09:18.785Z,2.58
2022-09-26T16:12:09.387Z,2.88
2022-09-26T16:14:46.313Z,2.10
2022-09-26T16:17:28.113Z,2.75
2022-09-26T16:19:57.236Z,2.03
2022-09-26T16:22:27.070Z,1.95
2022-09-26T16:25:02.279Z,2.22
2022-09-26T16:27:34.300Z,2.78
2022-09-26T16:30:04.917Z,2.20
2022-09-26T16:32:32.281Z,2.60
2022-09-26T16:35:16.634Z,2.45
2022-09-26T16:37:43.632Z,2.55
2022-09-26T16:40:18.348Z,3.17
2022-09-26T16:42:46.400Z,2.35
2022-09-26T16:45:14.593Z,2.38
2022-09-26T16:47:44.905Z,2.90
2022-09-26T16:50:17.834Z,2.85
2022-09-26T16:52:45.852Z,2.20
2022-09-26T16:55:13.112Z,1.95
2022-09-26T16:58:01.636Z,1.70
2022-09-26T17:00:53.010Z,1.83
2022-09-26T17:03:21.712Z,1.90
2022-09-26T17:05:48.872Z,1.55
2022-09-26T17:08:17.289Z,1.85
2022-09-26T17:10:47.390Z,1.70
2022-09-26T17:13:23.998Z,1.70
2022-09-26T17:15:55.330Z,0.90
2022-09-26T17:18:28.916Z,1.50
2022-09-26T17:20:56.809Z,1.30
2022-09-26T17:23:41.887Z,1.48
2022-09-26T17:26:18.079Z,2.20
2022-09-26T17:28:45.379Z,0.68
2022-09-26T17:31:19.872Z,2.00
2022-09-26T17:33:52.279Z,2.50
2022-09-26T17:36:25.706Z,2.03
2022-09-26T17:38:53.340Z,1.20
2022-09-26T17:41:22.914Z,1.25
2022-09-26T17:44:00.029Z,2.38
2022-09-26T17:46:28.835Z,2.15
2022-09-26T17:48:56.230Z,1.00
2022-09-26T17:51:27.061Z,1.17
2022-09-26T17:53:57.261Z,1.10
2022-09-26T17:56:26.213Z,1.30
2022-09-26T17:58:54.134Z,1.90
2022-09-26T18:01:33.586Z,0.65
2022-09-26T18:04:07.042Z,1.45
2022-09-26T18:06:34.576Z,0.82
2022-09-26T18:09:10.003Z,1.17
2022-09-26T18:11:39.098Z,0.65
2022-09-26T18:14:08.651Z,1.48
2022-09-26T18:16:35.502Z,0.98
2022-09-26T18:19:07.052Z,0.90
2022-09-26T18:21:35.197Z,1.13
2022-09-26T18:24:06.378Z,0.90
2022-09-26T18:26:47.044Z,0.68
2022-09-26T18:29:17.775Z,1.77
2022-09-26T18:31:46.436Z,0.80
2022-09-26T18:34:20.302Z,1.65
2022-09-26T18:36:50.304Z,1.38
2022-09-26T18:41:59.259Z,2.15
2022-09-26T18:44:27.431Z,1.42
2022-09-26T18:47:01.728Z,0.93
2022-09-26T18:49:37.511Z,2.03
2022-09-26T18:52:11.856Z,1.90
2022-09-26T18:54:38.875Z,1.67
2022-09-26T18:57:32.565Z,1.30
2022-09-26T19:00:01.757Z,0.98
2022-09-26T19:02:35.406Z,2.28
2022-09-26T19:07:33.451Z,0.98
2022-09-26T19:10:00.734Z,0.90
2022-09-26T19:12:27.647Z,1.83
2022-09-26T19:14:54.398Z,1.48
2022-09-26T19:17:21.342Z,2.45
2022-09-26T19:19:48.115Z,2.60
2022-09-26T19:22:17.304Z,1.35
2022-09-26T19:24:48.653Z,1.98
2022-09-26T19:27:18.545Z,1.55
2022-09-26T19:29:53.743Z,1.25
2022-09-26T19:32:23.367Z,1.75
2022-09-26T19:34:55.458Z,0.93
2022-09-26T19:37:22.319Z,1.42
2022-09-26T19:39:49.213Z,0.90
2022-09-26T19:42:16.083Z,1.25
2022-09-26T19:44:43.084Z,0.90
2022-09-26T19:47:21.920Z,1.05
2022-09-26T19:49:51.925Z,1.40
2022-09-26T19:52:20.780Z,1.98
2022-09-26T19:54:48.741Z,1.20
2022-09-26T19:57:17.622Z,1.27
2022-09-26T19:59:45.817Z,0.88
2022-09-26T20:02:22.442Z,0.35
2022-09-26T20:04:50.399Z,1.33
2022-09-26T20:07:19.177Z,0.68
2022-09-26T20:09:46.879Z,0.35
2022-09-26T20:12:13.851Z,0.30
2022-09-26T20:14:40.775Z,0.52
2022-09-26T20:17:17.771Z,0.63
2022-09-26T20:19:48.534Z,0.32
2022-09-26T20:22:21.703Z,0.28
2022-09-26T20:24:53.586Z,0.43
2022-09-26T20:27:26.329Z,0.60
2022-09-26T20:30:30.066Z,0.20
2022-09-26T20:32:57.158Z,0.30
2022-09-26T20:35:24.220Z,0.35
2022-09-26T20:37:52.191Z,0.52
2022-09-26T20:40:22.621Z,0.25
2022-09-26T20:42:56.014Z,0.17
2022-09-26T20:45:43.966Z,0.43
2022-09-26T20:48:22.761Z,0.32
2022-09-26T20:50:56.546Z,0.43
2022-09-26T20:53:26.886Z,0.40
2022-09-26T20:55:55.265Z,1.23
2022-09-26T20:58:22.666Z,1.60
2022-09-26T21:00:50.219Z,1.00
2022-09-26T21:03:21.795Z,0.10
2022-09-26T21:05:48.728Z,0.95
2022-09-26T21:08:35.881Z,0.50
2022-09-26T21:11:05.950Z,0.82
2022-09-26T21:13:32.784Z,0.50
2022-09-26T21:15:59.820Z,0.55
2022-09-26T21:18:29.136Z,1.15
2022-09-26T21:21:03.904Z,0.80
2022-09-26T21:24:21.561Z,0.98
2022-09-26T21:26:51.169Z,0.80
2022-09-26T21:29:18.266Z,0.35
2022-09-26T21:31:49.455Z,0.73
2022-09-26T21:34:26.204Z,0.47
2022-09-26T21:36:55.975Z,0.47
2022-09-26T21:39:24.638Z,0.65
2022-09-26T21:41:55.630Z,0.90
2022-09-26T21:44:36.807Z,0.43
2022-09-26T21:47:03.940Z,0.50
2022-09-26T21:49:31.270Z,0.63
2022-09-26T21:52:15.058Z,0.90
2022-09-26T21:54:44.730Z,0.50
2022-09-26T21:57:25.799Z,0.88
2022-09-26T21:59:53.562Z,0.47
2022-09-26T22:02:20.589Z,0.55
2022-09-26T22:04:47.863Z,0.40
2022-09-26T22:07:14.892Z,0.52
2022-09-26T22:09:42.442Z,0.40
2022-09-26T22:12:09.236Z,0.95
2022-09-26T22:14:36.148Z,0.77
2022-09-26T22:17:03.009Z,0.55
2022-09-26T22:19:33.347Z,0.73
2022-09-26T22:22:01.286Z,0.30
2022-09-26T22:24:28.615Z,0.35
2022-09-26T22:26:55.486Z,1.42
2022-09-26T22:29:23.372Z,0.40
2022-09-26T22:31:51.684Z,0.60
2022-09-26T22:34:19.398Z,0.57
2022-09-26T22:36:46.215Z,0.20
2022-09-26T22:39:13.095Z,0.40
2022-09-26T22:41:39.926Z,0.52
2022-09-26T22:44:06.818Z,0.43
2022-09-26T22:46:35.302Z,0.38
2022-09-26T22:49:06.595Z,0.80
2022-09-26T22:51:39.737Z,0.50
2022-09-26T22:54:06.588Z,0.40
2022-09-26T22:56:33.401Z,0.57
2022-09-26T22:59:02.857Z,0.35
2022-09-26T23:01:29.935Z,1.15
2022-09-26T23:04:00.370Z,0.52
2022-09-26T23:06:27.865Z,0.63
2022-09-26T23:08:56.127Z,0.55
2022-09-26T23:11:24.198Z,0.57
2022-09-26T23:13:52.491Z,0.68
2022-09-26T23:16:25.183Z,0.40
2022-09-26T23:18:52.438Z,0.50
2022-09-26T23:21:24.416Z,0.60
2022-09-26T23:23:57.169Z,0.90
2022-09-26T23:26:27.272Z,0.63
2022-09-26T23:28:56.580Z,0.40
2022-09-26T23:31:25.109Z,0.47
2022-09-26T23:33:55.391Z,0.70
2022-09-26T23:36:22.936Z,0.40
2022-09-26T23:38:49.976Z,0.40
2022-09-26T23:41:17.526Z,0.45
2022-09-26T23:43:46.307Z,0.43
2022-09-26T23:46:13.722Z,1.13
2022-09-26T23:48:40.651Z,0.73
2022-09-26T23:51:08.150Z,0.90
2022-09-26T23:53:35.624Z,0.52
2022-09-26T23:56:07.260Z,0.50
2022-09-26T23:58:34.206Z,0.47
